sensor_id;sensor_type;location;lat;lon;timestamp;P1;durP1;ratioP1;P2;durP2;ratioP2
34102;SDS011;20381;54.498;18.206;2022-11-20T00:01:04;37.70;;;26.73;;
34102;SDS011;20381;54.498;18.206;2022-11-20T00:03:37;36.65;;;24.72;;
34102;SDS011;20381;54.498;18.206;2022-11-20T00:06:05;42.73;;;29.87;;
34102;SDS011;20381;54.498;18.206;2022-11-20T00:08:34;37.03;;;26.02;;
34102;SDS011;20381;54.498;18.206;2022-11-20T00:11:02;38.85;;;26.45;;
34102;SDS011;20381;54.498;18.206;2022-11-20T00:13:33;42.58;;;29.30;;
34102;SDS011;20381;54.498;18.206;2022-11-20T00:16:00;40.78;;;26.48;;
34102;SDS011;20381;54.498;18.206;2022-11-20T00:18:30;39.98;;;25.92;;
34102;SDS011;20381;54.498;18.206;2022-11-20T00:21:00;39.15;;;26.45;;
34102;SDS011;20381;54.498;18.206;2022-11-20T00:23:31;42.20;;;28.47;;
34102;SDS011;20381;54.498;18.206;2022-11-20T00:26:01;42.73;;;27.52;;
34102;SDS011;20381;54.498;18.206;2022-11-20T00:28:30;40.85;;;28.42;;
34102;SDS011;20381;54.498;18.206;2022-11-20T00:31:01;41.80;;;26.93;;
34102;SDS011;20381;54.498;18.206;2022-11-20T00:33:30;37.45;;;25.40;;
34102;SDS011;20381;54.498;18.206;2022-11-20T00:36:04;37.48;;;26.37;;
34102;SDS011;20381;54.498;18.206;2022-11-20T00:38:33;37.98;;;26.35;;
34102;SDS011;20381;54.498;18.206;2022-11-20T00:41:00;38.28;;;24.07;;
34102;SDS011;20381;54.498;18.206;2022-11-20T00:43:30;39.10;;;24.35;;
34102;SDS011;20381;54.498;18.206;2022-11-20T00:46:01;38.40;;;26.30;;
34102;SDS011;20381;54.498;18.206;2022-11-20T00:48:33;40.40;;;26.60;;
34102;SDS011;20381;54.498;18.206;2022-11-20T00:51:00;41.95;;;28.17;;
34102;SDS011;20381;54.498;18.206;2022-11-20T00:53:27;39.30;;;25.37;;
34102;SDS011;20381;54.498;18.206;2022-11-20T00:55:58;39.70;;;25.10;;
34102;SDS011;20381;54.498;18.206;2022-11-20T00:58:25;41.83;;;27.25;;
34102;SDS011;20381;54.498;18.206;2022-11-20T01:01:01;43.28;;;27.85;;
34102;SDS011;20381;54.498;18.206;2022-11-20T01:03:32;37.40;;;26.75;;
34102;SDS011;20381;54.498;18.206;2022-11-20T01:06:02;37.78;;;25.57;;
34102;SDS011;20381;54.498;18.206;2022-11-20T01:08:32;40.08;;;26.27;;
34102;SDS011;20381;54.498;18.206;2022-11-20T01:11:02;38.80;;;25.80;;
34102;SDS011;20381;54.498;18.206;2022-11-20T01:13:35;38.78;;;25.90;;
34102;SDS011;20381;54.498;18.206;2022-11-20T01:16:03;41.98;;;25.27;;
34102;SDS011;20381;54.498;18.206;2022-11-20T01:18:34;37.35;;;25.57;;
34102;SDS011;20381;54.498;18.206;2022-11-20T01:21:05;36.48;;;24.47;;
34102;SDS011;20381;54.498;18.206;2022-11-20T01:23:37;34.48;;;23.12;;
34102;SDS011;20381;54.498;18.206;2022-11-20T01:26:07;38.50;;;25.43;;
34102;SDS011;20381;54.498;18.206;2022-11-20T01:28:38;35.28;;;23.62;;
34102;SDS011;20381;54.498;18.206;2022-11-20T01:36:11;36.73;;;23.75;;
34102;SDS011;20381;54.498;18.206;2022-11-20T01:38:39;33.80;;;24.20;;
34102;SDS011;20381;54.498;18.206;2022-11-20T01:41:07;44.03;;;24.92;;
34102;SDS011;20381;54.498;18.206;2022-11-20T01:43:35;43.13;;;26.87;;
34102;SDS011;20381;54.498;18.206;2022-11-20T01:46:17;36.48;;;25.65;;
34102;SDS011;20381;54.498;18.206;2022-11-20T01:48:53;42.95;;;27.70;;
34102;SDS011;20381;54.498;18.206;2022-11-20T01:54:10;37.25;;;24.95;;
34102;SDS011;20381;54.498;18.206;2022-11-20T01:56:43;44.35;;;27.65;;
34102;SDS011;20381;54.498;18.206;2022-11-20T01:59:12;48.33;;;28.20;;
34102;SDS011;20381;54.498;18.206;2022-11-20T02:01:41;42.43;;;28.67;;
34102;SDS011;20381;54.498;18.206;2022-11-20T02:04:09;38.63;;;26.42;;
34102;SDS011;20381;54.498;18.206;2022-11-20T02:06:47;43.87;;;28.35;;
34102;SDS011;20381;54.498;18.206;2022-11-20T02:09:17;40.03;;;25.57;;
34102;SDS011;20381;54.498;18.206;2022-11-20T02:11:44;40.73;;;27.20;;
34102;SDS011;20381;54.498;18.206;2022-11-20T02:14:11;40.77;;;26.97;;
34102;SDS011;20381;54.498;18.206;2022-11-20T02:16:39;43.98;;;28.05;;
34102;SDS011;20381;54.498;18.206;2022-11-20T02:19:14;42.00;;;27.02;;
34102;SDS011;20381;54.498;18.206;2022-11-20T02:22:00;44.00;;;27.52;;
34102;SDS011;20381;54.498;18.206;2022-11-20T02:24:56;41.50;;;27.35;;
34102;SDS011;20381;54.498;18.206;2022-11-20T02:27:26;45.67;;;28.27;;
34102;SDS011;20381;54.498;18.206;2022-11-20T02:29:55;39.95;;;28.32;;
34102;SDS011;20381;54.498;18.206;2022-11-20T02:32:26;42.62;;;27.55;;
34102;SDS011;20381;54.498;18.206;2022-11-20T02:35:06;40.30;;;27.55;;
34102;SDS011;20381;54.498;18.206;2022-11-20T02:37:37;49.85;;;29.72;;
34102;SDS011;20381;54.498;18.206;2022-11-20T02:40:06;43.30;;;26.65;;
34102;SDS011;20381;54.498;18.206;2022-11-20T02:42:34;38.13;;;23.67;;
34102;SDS011;20381;54.498;18.206;2022-11-20T02:45:02;38.30;;;27.60;;
34102;SDS011;20381;54.498;18.206;2022-11-20T02:47:33;36.08;;;23.67;;
34102;SDS011;20381;54.498;18.206;2022-11-20T02:50:00;38.35;;;23.12;;
34102;SDS011;20381;54.498;18.206;2022-11-20T02:52:27;41.25;;;24.40;;
34102;SDS011;20381;54.498;18.206;2022-11-20T02:54:53;38.92;;;26.45;;
34102;SDS011;20381;54.498;18.206;2022-11-20T02:57:20;37.25;;;25.20;;
34102;SDS011;20381;54.498;18.206;2022-11-20T02:59:47;39.37;;;24.33;;
34102;SDS011;20381;54.498;18.206;2022-11-20T03:02:13;43.43;;;27.23;;
34102;SDS011;20381;54.498;18.206;2022-11-20T03:04:40;39.27;;;25.97;;
34102;SDS011;20381;54.498;18.206;2022-11-20T03:07:07;38.67;;;24.97;;
34102;SDS011;20381;54.498;18.206;2022-11-20T03:09:35;34.00;;;23.60;;
34102;SDS011;20381;54.498;18.206;2022-11-20T03:12:02;32.35;;;23.18;;
34102;SDS011;20381;54.498;18.206;2022-11-20T03:14:29;32.35;;;22.70;;
34102;SDS011;20381;54.498;18.206;2022-11-20T03:16:56;28.63;;;20.93;;
34102;SDS011;20381;54.498;18.206;2022-11-20T03:19:23;36.65;;;24.70;;
34102;SDS011;20381;54.498;18.206;2022-11-20T03:21:49;37.03;;;25.23;;
34102;SDS011;20381;54.498;18.206;2022-11-20T03:24:16;37.43;;;25.60;;
34102;SDS011;20381;54.498;18.206;2022-11-20T03:26:43;37.97;;;23.50;;
34102;SDS011;20381;54.498;18.206;2022-11-20T03:29:09;31.53;;;24.33;;
34102;SDS011;20381;54.498;18.206;2022-11-20T03:31:37;34.45;;;24.40;;
34102;SDS011;20381;54.498;18.206;2022-11-20T03:34:06;35.70;;;24.18;;
34102;SDS011;20381;54.498;18.206;2022-11-20T03:36:37;34.18;;;24.18;;
34102;SDS011;20381;54.498;18.206;2022-11-20T03:39:08;36.98;;;23.67;;
34102;SDS011;20381;54.498;18.206;2022-11-20T03:41:38;37.37;;;24.40;;
34102;SDS011;20381;54.498;18.206;2022-11-20T03:44:07;38.35;;;25.27;;
34102;SDS011;20381;54.498;18.206;2022-11-20T03:46:36;41.98;;;24.77;;
34102;SDS011;20381;54.498;18.206;2022-11-20T03:49:03;39.33;;;26.15;;
34102;SDS011;20381;54.498;18.206;2022-11-20T03:51:31;38.05;;;25.77;;
34102;SDS011;20381;54.498;18.206;2022-11-20T03:54:00;38.75;;;26.82;;
34102;SDS011;20381;54.498;18.206;2022-11-20T03:56:31;35.65;;;24.90;;
34102;SDS011;20381;54.498;18.206;2022-11-20T03:59:01;37.50;;;27.13;;
34102;SDS011;20381;54.498;18.206;2022-11-20T04:01:33;37.23;;;26.02;;
34102;SDS011;20381;54.498;18.206;2022-11-20T04:04:02;33.85;;;23.92;;
34102;SDS011;20381;54.498;18.206;2022-11-20T04:09:03;37.50;;;25.02;;
34102;SDS011;20381;54.498;18.206;2022-11-20T04:11:31;40.95;;;26.40;;
34102;SDS011;20381;54.498;18.206;2022-11-20T04:14:00;41.48;;;26.23;;
34102;SDS011;20381;54.498;18.206;2022-11-20T04:16:31;37.25;;;26.17;;
34102;SDS011;20381;54.498;18.206;2022-11-20T04:19:01;44.35;;;26.30;;
34102;SDS011;20381;54.498;18.206;2022-11-20T04:21:30;42.25;;;27.30;;
34102;SDS011;20381;54.498;18.206;2022-11-20T04:23:57;42.00;;;27.03;;
34102;SDS011;20381;54.498;18.206;2022-11-20T04:26:25;41.20;;;27.13;;
34102;SDS011;20381;54.498;18.206;2022-11-20T04:28:54;42.78;;;28.05;;
34102;SDS011;20381;54.498;18.206;2022-11-20T04:31:22;39.63;;;27.15;;
34102;SDS011;20381;54.498;18.206;2022-11-20T04:33:52;39.48;;;26.93;;
34102;SDS011;20381;54.498;18.206;2022-11-20T04:36:20;43.87;;;29.48;;
34102;SDS011;20381;54.498;18.206;2022-11-20T04:38:52;47.50;;;27.85;;
34102;SDS011;20381;54.498;18.206;2022-11-20T04:41:25;41.63;;;28.05;;
34102;SDS011;20381;54.498;18.206;2022-11-20T04:43:56;40.12;;;27.30;;
34102;SDS011;20381;54.498;18.206;2022-11-20T04:46:31;37.78;;;23.92;;
34102;SDS011;20381;54.498;18.206;2022-11-20T04:49:00;43.50;;;28.00;;
34102;SDS011;20381;54.498;18.206;2022-11-20T04:51:27;38.00;;;25.65;;
34102;SDS011;20381;54.498;18.206;2022-11-20T04:53:57;42.48;;;26.23;;
34102;SDS011;20381;54.498;18.206;2022-11-20T04:56:24;43.30;;;27.17;;
34102;SDS011;20381;54.498;18.206;2022-11-20T04:58:50;42.67;;;27.93;;
34102;SDS011;20381;54.498;18.206;2022-11-20T05:01:18;41.20;;;28.47;;
34102;SDS011;20381;54.498;18.206;2022-11-20T05:03:48;44.08;;;29.00;;
34102;SDS011;20381;54.498;18.206;2022-11-20T05:06:15;44.42;;;25.80;;
34102;SDS011;20381;54.498;18.206;2022-11-20T05:08:45;49.30;;;29.15;;
34102;SDS011;20381;54.498;18.206;2022-11-20T05:11:16;49.40;;;28.67;;
34102;SDS011;20381;54.498;18.206;2022-11-20T05:13:46;42.78;;;26.82;;
34102;SDS011;20381;54.498;18.206;2022-11-20T05:16:14;41.20;;;26.90;;
34102;SDS011;20381;54.498;18.206;2022-11-20T05:18:45;42.83;;;27.30;;
34102;SDS011;20381;54.498;18.206;2022-11-20T05:21:13;49.13;;;30.68;;
34102;SDS011;20381;54.498;18.206;2022-11-20T05:23:41;43.65;;;27.82;;
34102;SDS011;20381;54.498;18.206;2022-11-20T05:26:12;51.25;;;30.23;;
34102;SDS011;20381;54.498;18.206;2022-11-20T05:28:42;46.70;;;28.92;;
34102;SDS011;20381;54.498;18.206;2022-11-20T05:31:10;50.28;;;29.80;;
34102;SDS011;20381;54.498;18.206;2022-11-20T05:33:45;45.73;;;30.15;;
34102;SDS011;20381;54.498;18.206;2022-11-20T05:36:13;49.08;;;30.43;;
34102;SDS011;20381;54.498;18.206;2022-11-20T05:38:40;46.75;;;28.62;;
34102;SDS011;20381;54.498;18.206;2022-11-20T05:41:09;45.43;;;28.15;;
34102;SDS011;20381;54.498;18.206;2022-11-20T05:43:44;49.85;;;28.95;;
34102;SDS011;20381;54.498;18.206;2022-11-20T05:46:13;52.73;;;29.90;;
34102;SDS011;20381;54.498;18.206;2022-11-20T05:48:43;47.85;;;29.67;;
34102;SDS011;20381;54.498;18.206;2022-11-20T05:51:11;49.63;;;29.32;;
34102;SDS011;20381;54.498;18.206;2022-11-20T05:53:43;53.60;;;30.25;;
34102;SDS011;20381;54.498;18.206;2022-11-20T05:56:18;54.73;;;31.37;;
34102;SDS011;20381;54.498;18.206;2022-11-20T05:58:46;51.58;;;31.10;;
34102;SDS011;20381;54.498;18.206;2022-11-20T06:01:14;47.98;;;30.15;;
34102;SDS011;20381;54.498;18.206;2022-11-20T06:03:47;47.38;;;30.00;;
34102;SDS011;20381;54.498;18.206;2022-11-20T06:06:16;50.90;;;31.97;;
34102;SDS011;20381;54.498;18.206;2022-11-20T06:08:44;49.25;;;30.62;;
34102;SDS011;20381;54.498;18.206;2022-11-20T06:11:11;44.38;;;28.40;;
34102;SDS011;20381;54.498;18.206;2022-11-20T06:13:40;48.92;;;30.40;;
34102;SDS011;20381;54.498;18.206;2022-11-20T06:16:07;44.67;;;29.40;;
34102;SDS011;20381;54.498;18.206;2022-11-20T06:18:35;39.03;;;23.60;;
34102;SDS011;20381;54.498;18.206;2022-11-20T06:21:04;47.73;;;28.40;;
34102;SDS011;20381;54.498;18.206;2022-11-20T06:23:34;43.33;;;26.40;;
34102;SDS011;20381;54.498;18.206;2022-11-20T06:26:06;42.48;;;27.37;;
34102;SDS011;20381;54.498;18.206;2022-11-20T06:28:39;35.58;;;23.83;;
34102;SDS011;20381;54.498;18.206;2022-11-20T06:31:06;39.92;;;25.17;;
34102;SDS011;20381;54.498;18.206;2022-11-20T06:33:33;36.03;;;22.80;;
34102;SDS011;20381;54.498;18.206;2022-11-20T06:36:00;36.98;;;25.48;;
34102;SDS011;20381;54.498;18.206;2022-11-20T06:38:28;35.05;;;23.50;;
34102;SDS011;20381;54.498;18.206;2022-11-20T06:40:54;34.60;;;23.93;;
34102;SDS011;20381;54.498;18.206;2022-11-20T06:43:21;39.95;;;26.20;;
34102;SDS011;20381;54.498;18.206;2022-11-20T06:45:53;39.27;;;24.55;;
34102;SDS011;20381;54.498;18.206;2022-11-20T06:48:21;37.23;;;25.05;;
34102;SDS011;20381;54.498;18.206;2022-11-20T06:50:48;36.50;;;23.83;;
34102;SDS011;20381;54.498;18.206;2022-11-20T06:53:15;42.60;;;26.75;;
34102;SDS011;20381;54.498;18.206;2022-11-20T06:55:42;42.80;;;28.75;;
34102;SDS011;20381;54.498;18.206;2022-11-20T06:58:13;38.08;;;25.45;;
34102;SDS011;20381;54.498;18.206;2022-11-20T07:00:41;38.55;;;24.32;;
34102;SDS011;20381;54.498;18.206;2022-11-20T07:03:09;38.53;;;25.30;;
34102;SDS011;20381;54.498;18.206;2022-11-20T07:05:37;35.85;;;24.20;;
34102;SDS011;20381;54.498;18.206;2022-11-20T07:08:04;36.75;;;24.77;;
34102;SDS011;20381;54.498;18.206;2022-11-20T07:10:31;38.23;;;23.90;;
34102;SDS011;20381;54.498;18.206;2022-11-20T07:12:58;38.85;;;25.12;;
34102;SDS011;20381;54.498;18.206;2022-11-20T07:15:25;39.35;;;26.05;;
34102;SDS011;20381;54.498;18.206;2022-11-20T07:17:52;38.70;;;25.02;;
34102;SDS011;20381;54.498;18.206;2022-11-20T07:20:19;36.28;;;23.83;;
34102;SDS011;20381;54.498;18.206;2022-11-20T07:22:46;35.50;;;21.70;;
34102;SDS011;20381;54.498;18.206;2022-11-20T07:25:12;74.97;;;43.53;;
34102;SDS011;20381;54.498;18.206;2022-11-20T07:27:39;43.75;;;27.87;;
34102;SDS011;20381;54.498;18.206;2022-11-20T07:30:06;40.47;;;24.67;;
34102;SDS011;20381;54.498;18.206;2022-11-20T07:32:33;166.32;;;98.45;;
34102;SDS011;20381;54.498;18.206;2022-11-20T07:35:00;45.17;;;29.27;;
34102;SDS011;20381;54.498;18.206;2022-11-20T07:37:26;55.93;;;35.87;;
34102;SDS011;20381;54.498;18.206;2022-11-20T07:39:53;60.55;;;36.08;;
34102;SDS011;20381;54.498;18.206;2022-11-20T07:42:19;46.23;;;31.33;;
34102;SDS011;20381;54.498;18.206;2022-11-20T07:44:46;43.05;;;29.12;;
34102;SDS011;20381;54.498;18.206;2022-11-20T07:47:14;50.15;;;31.82;;
34102;SDS011;20381;54.498;18.206;2022-11-20T07:49:40;57.90;;;36.80;;
34102;SDS011;20381;54.498;18.206;2022-11-20T07:52:07;51.40;;;33.85;;
34102;SDS011;20381;54.498;18.206;2022-11-20T07:54:34;47.03;;;30.70;;
34102;SDS011;20381;54.498;18.206;2022-11-20T07:57:00;47.25;;;28.98;;
34102;SDS011;20381;54.498;18.206;2022-11-20T07:59:27;43.00;;;27.70;;
34102;SDS011;20381;54.498;18.206;2022-11-20T08:01:54;33.97;;;24.30;;
34102;SDS011;20381;54.498;18.206;2022-11-20T08:04:21;41.10;;;25.75;;
34102;SDS011;20381;54.498;18.206;2022-11-20T08:06:48;39.55;;;26.20;;
34102;SDS011;20381;54.498;18.206;2022-11-20T08:09:15;41.73;;;27.37;;
34102;SDS011;20381;54.498;18.206;2022-11-20T08:11:42;48.60;;;33.00;;
34102;SDS011;20381;54.498;18.206;2022-11-20T08:14:26;52.33;;;33.45;;
34102;SDS011;20381;54.498;18.206;2022-11-20T08:16:53;52.05;;;33.85;;
34102;SDS011;20381;54.498;18.206;2022-11-20T08:19:20;58.37;;;37.67;;
34102;SDS011;20381;54.498;18.206;2022-11-20T08:21:46;77.65;;;44.55;;
34102;SDS011;20381;54.498;18.206;2022-11-20T08:24:13;67.27;;;41.85;;
34102;SDS011;20381;54.498;18.206;2022-11-20T08:26:40;75.80;;;44.17;;
34102;SDS011;20381;54.498;18.206;2022-11-20T08:29:07;92.82;;;55.43;;
34102;SDS011;20381;54.498;18.206;2022-11-20T08:31:34;85.67;;;53.02;;
34102;SDS011;20381;54.498;18.206;2022-11-20T08:34:03;72.03;;;42.95;;
34102;SDS011;20381;54.498;18.206;2022-11-20T08:36:32;63.38;;;38.48;;
34102;SDS011;20381;54.498;18.206;2022-11-20T08:39:00;45.58;;;29.48;;
34102;SDS011;20381;54.498;18.206;2022-11-20T08:41:26;41.28;;;26.05;;
34102;SDS011;20381;54.498;18.206;2022-11-20T08:43:54;54.47;;;37.97;;
34102;SDS011;20381;54.498;18.206;2022-11-20T08:46:28;48.45;;;31.68;;
34102;SDS011;20381;54.498;18.206;2022-11-20T08:49:01;43.70;;;29.52;;
34102;SDS011;20381;54.498;18.206;2022-11-20T08:51:30;46.68;;;30.23;;
34102;SDS011;20381;54.498;18.206;2022-11-20T08:54:38;48.63;;;29.92;;
34102;SDS011;20381;54.498;18.206;2022-11-20T08:56:54;45.05;;;29.15;;
34102;SDS011;20381;54.498;18.206;2022-11-20T08:59:20;44.42;;;27.87;;
34102;SDS011;20381;54.498;18.206;2022-11-20T09:01:47;45.60;;;28.43;;
34102;SDS011;20381;54.498;18.206;2022-11-20T09:04:14;45.77;;;29.83;;
34102;SDS011;20381;54.498;18.206;2022-11-20T09:06:41;36.83;;;26.68;;
34102;SDS011;20381;54.498;18.206;2022-11-20T09:09:07;37.70;;;25.57;;
34102;SDS011;20381;54.498;18.206;2022-11-20T09:11:34;44.90;;;28.38;;
34102;SDS011;20381;54.498;18.206;2022-11-20T09:14:01;39.23;;;26.27;;
34102;SDS011;20381;54.498;18.206;2022-11-20T09:16:30;48.52;;;28.05;;
34102;SDS011;20381;54.498;18.206;2022-11-20T09:18:56;40.65;;;27.25;;
34102;SDS011;20381;54.498;18.206;2022-11-20T09:21:23;42.10;;;25.88;;
34102;SDS011;20381;54.498;18.206;2022-11-20T09:23:50;42.70;;;28.30;;
34102;SDS011;20381;54.498;18.206;2022-11-20T09:26:17;45.13;;;29.03;;
34102;SDS011;20381;54.498;18.206;2022-11-20T09:28:45;49.88;;;30.50;;
34102;SDS011;20381;54.498;18.206;2022-11-20T09:31:29;53.33;;;33.00;;
34102;SDS011;20381;54.498;18.206;2022-11-20T09:33:48;49.33;;;31.05;;
34102;SDS011;20381;54.498;18.206;2022-11-20T09:36:15;56.50;;;35.20;;
34102;SDS011;20381;54.498;18.206;2022-11-20T09:38:44;52.75;;;33.58;;
34102;SDS011;20381;54.498;18.206;2022-11-20T09:47:57;57.10;;;34.00;;
34102;SDS011;20381;54.498;18.206;2022-11-20T09:50:17;59.83;;;34.05;;
34102;SDS011;20381;54.498;18.206;2022-11-20T09:55:31;48.35;;;30.00;;
34102;SDS011;20381;54.498;18.206;2022-11-20T09:58:00;47.73;;;30.25;;
34102;SDS011;20381;54.498;18.206;2022-11-20T10:00:31;43.98;;;28.67;;
34102;SDS011;20381;54.498;18.206;2022-11-20T10:03:01;47.55;;;29.98;;
34102;SDS011;20381;54.498;18.206;2022-11-20T10:19:47;50.03;;;29.63;;
34102;SDS011;20381;54.498;18.206;2022-11-20T10:22:40;43.85;;;29.18;;
34102;SDS011;20381;54.498;18.206;2022-11-20T10:25:19;54.33;;;31.30;;
34102;SDS011;20381;54.498;18.206;2022-11-20T10:30:42;45.28;;;29.52;;
34102;SDS011;20381;54.498;18.206;2022-11-20T10:33:33;48.25;;;30.00;;
34102;SDS011;20381;54.498;18.206;2022-11-20T10:36:33;46.70;;;28.10;;
34102;SDS011;20381;54.498;18.206;2022-11-20T10:38:39;45.67;;;28.27;;
34102;SDS011;20381;54.498;18.206;2022-11-20T10:41:10;44.63;;;27.55;;
34102;SDS011;20381;54.498;18.206;2022-11-20T10:44:01;45.23;;;28.20;;
34102;SDS011;20381;54.498;18.206;2022-11-20T10:47:14;47.70;;;30.05;;
34102;SDS011;20381;54.498;18.206;2022-11-20T10:49:40;49.33;;;29.92;;
34102;SDS011;20381;54.498;18.206;2022-11-20T10:52:16;57.45;;;33.88;;
34102;SDS011;20381;54.498;18.206;2022-11-20T10:54:47;61.40;;;37.83;;
34102;SDS011;20381;54.498;18.206;2022-11-20T11:00:14;64.27;;;40.15;;
34102;SDS011;20381;54.498;18.206;2022-11-20T11:02:49;69.90;;;39.75;;
34102;SDS011;20381;54.498;18.206;2022-11-20T11:05:22;67.58;;;38.88;;
34102;SDS011;20381;54.498;18.206;2022-11-20T11:07:59;60.35;;;39.73;;
34102;SDS011;20381;54.498;18.206;2022-11-20T11:10:36;71.07;;;44.40;;
34102;SDS011;20381;54.498;18.206;2022-11-20T11:13:22;68.52;;;39.15;;
34102;SDS011;20381;54.498;18.206;2022-11-20T11:15:53;70.65;;;43.20;;
34102;SDS011;20381;54.498;18.206;2022-11-20T11:18:28;68.07;;;40.43;;
34102;SDS011;20381;54.498;18.206;2022-11-20T11:21:02;57.53;;;34.90;;
34102;SDS011;20381;54.498;18.206;2022-11-20T11:23:39;59.13;;;34.18;;
34102;SDS011;20381;54.498;18.206;2022-11-20T11:26:20;51.23;;;31.30;;
34102;SDS011;20381;54.498;18.206;2022-11-20T11:28:57;46.90;;;29.77;;
34102;SDS011;20381;54.498;18.206;2022-11-20T11:31:27;47.13;;;28.70;;
34102;SDS011;20381;54.498;18.206;2022-11-20T11:34:08;47.20;;;30.45;;
34102;SDS011;20381;54.498;18.206;2022-11-20T11:36:40;50.78;;;29.67;;
34102;SDS011;20381;54.498;18.206;2022-11-20T11:39:12;45.92;;;29.98;;
34102;SDS011;20381;54.498;18.206;2022-11-20T11:41:44;51.70;;;30.48;;
34102;SDS011;20381;54.498;18.206;2022-11-20T11:47:22;57.27;;;34.15;;
34102;SDS011;20381;54.498;18.206;2022-11-20T11:50:14;79.87;;;44.80;;
34102;SDS011;20381;54.498;18.206;2022-11-20T11:52:49;76.42;;;44.53;;
34102;SDS011;20381;54.498;18.206;2022-11-20T11:55:28;79.60;;;44.88;;
34102;SDS011;20381;54.498;18.206;2022-11-20T12:06:57;66.70;;;38.88;;
34102;SDS011;20381;54.498;18.206;2022-11-20T12:09:34;66.82;;;38.92;;
34102;SDS011;20381;54.498;18.206;2022-11-20T12:12:03;60.63;;;38.38;;
34102;SDS011;20381;54.498;18.206;2022-11-20T12:14:48;57.62;;;37.40;;
34102;SDS011;20381;54.498;18.206;2022-11-20T12:17:18;68.80;;;39.13;;
34102;SDS011;20381;54.498;18.206;2022-11-20T12:19:45;69.55;;;40.83;;
34102;SDS011;20381;54.498;18.206;2022-11-20T12:22:30;68.72;;;40.48;;
34102;SDS011;20381;54.498;18.206;2022-11-20T12:28:09;65.25;;;38.92;;
34102;SDS011;20381;54.498;18.206;2022-11-20T12:30:59;58.02;;;36.75;;
34102;SDS011;20381;54.498;18.206;2022-11-20T12:33:51;62.83;;;36.45;;
34102;SDS011;20381;54.498;18.206;2022-11-20T12:36:40;60.23;;;34.13;;
34102;SDS011;20381;54.498;18.206;2022-11-20T12:39:27;60.20;;;36.03;;
34102;SDS011;20381;54.498;18.206;2022-11-20T12:54:06;52.20;;;34.48;;
34102;SDS011;20381;54.498;18.206;2022-11-20T12:56:46;60.35;;;35.15;;
34102;SDS011;20381;54.498;18.206;2022-11-20T13:11:09;52.88;;;33.67;;
34102;SDS011;20381;54.498;18.206;2022-11-20T13:14:00;56.83;;;31.95;;
34102;SDS011;20381;54.498;18.206;2022-11-20T13:16:56;62.78;;;32.42;;
34102;SDS011;20381;54.498;18.206;2022-11-20T13:19:37;62.40;;;34.15;;
34102;SDS011;20381;54.498;18.206;2022-11-20T13:22:07;64.60;;;36.30;;
34102;SDS011;20381;54.498;18.206;2022-11-20T13:24:35;62.67;;;34.33;;
34102;SDS011;20381;54.498;18.206;2022-11-20T13:27:05;70.97;;;39.27;;
34102;SDS011;20381;54.498;18.206;2022-11-20T13:29:43;66.92;;;38.48;;
34102;SDS011;20381;54.498;18.206;2022-11-20T13:37:30;67.17;;;36.17;;
34102;SDS011;20381;54.498;18.206;2022-11-20T13:42:40;68.52;;;36.13;;
34102;SDS011;20381;54.498;18.206;2022-11-20T13:45:32;59.63;;;34.50;;
34102;SDS011;20381;54.498;18.206;2022-11-20T13:48:00;61.68;;;35.68;;
34102;SDS011;20381;54.498;18.206;2022-11-20T13:53:20;69.95;;;40.45;;
34102;SDS011;20381;54.498;18.206;2022-11-20T13:56:05;60.55;;;32.13;;
34102;SDS011;20381;54.498;18.206;2022-11-20T14:01:35;61.40;;;36.08;;
34102;SDS011;20381;54.498;18.206;2022-11-20T14:04:07;67.37;;;38.38;;
34102;SDS011;20381;54.498;18.206;2022-11-20T14:06:48;69.03;;;35.88;;
34102;SDS011;20381;54.498;18.206;2022-11-20T14:09:26;65.28;;;39.40;;
34102;SDS011;20381;54.498;18.206;2022-11-20T14:11:55;68.87;;;37.73;;
34102;SDS011;20381;54.498;18.206;2022-11-20T14:14:23;66.30;;;38.23;;
34102;SDS011;20381;54.498;18.206;2022-11-20T14:16:53;65.32;;;37.48;;
34102;SDS011;20381;54.498;18.206;2022-11-20T14:19:32;71.50;;;38.98;;
34102;SDS011;20381;54.498;18.206;2022-11-20T14:25:00;65.12;;;36.17;;
34102;SDS011;20381;54.498;18.206;2022-11-20T14:27:41;68.57;;;38.67;;
34102;SDS011;20381;54.498;18.206;2022-11-20T14:30:15;66.82;;;37.93;;
34102;SDS011;20381;54.498;18.206;2022-11-20T14:32:45;78.40;;;40.78;;
34102;SDS011;20381;54.498;18.206;2022-11-20T14:35:23;69.87;;;41.55;;
34102;SDS011;20381;54.498;18.206;2022-11-20T14:37:52;69.20;;;38.55;;
34102;SDS011;20381;54.498;18.206;2022-11-20T14:40:24;65.78;;;39.23;;
34102;SDS011;20381;54.498;18.206;2022-11-20T14:42:58;64.35;;;37.53;;
34102;SDS011;20381;54.498;18.206;2022-11-20T14:45:25;65.72;;;40.55;;
34102;SDS011;20381;54.498;18.206;2022-11-20T14:47:53;66.77;;;39.33;;
34102;SDS011;20381;54.498;18.206;2022-11-20T14:50:23;67.00;;;39.03;;
34102;SDS011;20381;54.498;18.206;2022-11-20T14:52:58;65.05;;;39.05;;
34102;SDS011;20381;54.498;18.206;2022-11-20T14:58:05;57.95;;;36.45;;
34102;SDS011;20381;54.498;18.206;2022-11-20T15:00:58;66.60;;;39.27;;
34102;SDS011;20381;54.498;18.206;2022-11-20T15:03:33;62.38;;;38.70;;
34102;SDS011;20381;54.498;18.206;2022-11-20T15:06:14;69.27;;;39.88;;
34102;SDS011;20381;54.498;18.206;2022-11-20T15:08:38;59.15;;;36.83;;
34102;SDS011;20381;54.498;18.206;2022-11-20T15:11:16;67.78;;;38.55;;
34102;SDS011;20381;54.498;18.206;2022-11-20T15:13:47;64.80;;;38.30;;
34102;SDS011;20381;54.498;18.206;2022-11-20T15:16:19;69.53;;;39.10;;
34102;SDS011;20381;54.498;18.206;2022-11-20T15:18:49;70.12;;;41.20;;
34102;SDS011;20381;54.498;18.206;2022-11-20T15:21:18;72.10;;;39.03;;
34102;SDS011;20381;54.498;18.206;2022-11-20T15:23:52;63.48;;;38.83;;
34102;SDS011;20381;54.498;18.206;2022-11-20T15:26:24;61.75;;;34.92;;
34102;SDS011;20381;54.498;18.206;2022-11-20T15:28:53;60.63;;;36.13;;
34102;SDS011;20381;54.498;18.206;2022-11-20T15:31:22;68.28;;;42.55;;
34102;SDS011;20381;54.498;18.206;2022-11-20T15:33:51;55.12;;;35.03;;
34102;SDS011;20381;54.498;18.206;2022-11-20T15:36:18;60.05;;;35.28;;
34102;SDS011;20381;54.498;18.206;2022-11-20T15:38:44;58.90;;;34.85;;
34102;SDS011;20381;54.498;18.206;2022-11-20T15:41:11;56.10;;;34.80;;
34102;SDS011;20381;54.498;18.206;2022-11-20T15:43:38;69.30;;;38.80;;
34102;SDS011;20381;54.498;18.206;2022-11-20T15:46:12;58.60;;;36.17;;
34102;SDS011;20381;54.498;18.206;2022-11-20T15:48:48;62.83;;;38.15;;
34102;SDS011;20381;54.498;18.206;2022-11-20T15:53:52;64.58;;;39.38;;
34102;SDS011;20381;54.498;18.206;2022-11-20T15:56:21;69.50;;;42.62;;
34102;SDS011;20381;54.498;18.206;2022-11-20T16:01:16;67.22;;;41.48;;
34102;SDS011;20381;54.498;18.206;2022-11-20T16:03:45;69.12;;;41.50;;
34102;SDS011;20381;54.498;18.206;2022-11-20T16:06:14;69.70;;;42.45;;
34102;SDS011;20381;54.498;18.206;2022-11-20T16:08:42;69.03;;;42.65;;
34102;SDS011;20381;54.498;18.206;2022-11-20T16:11:14;74.65;;;45.92;;
34102;SDS011;20381;54.498;18.206;2022-11-20T16:13:40;85.40;;;62.13;;